createdAt,value
2023-04-30T00:01:05.670Z,15.57
2023-04-30T00:03:31.995Z,16.27
2023-04-30T00:05:58.469Z,17.60
2023-04-30T00:08:24.783Z,17.33
2023-04-30T00:10:51.706Z,18.33
2023-04-30T00:15:45.010Z,17.17
2023-04-30T00:18:11.257Z,18.95
2023-04-30T00:20:37.497Z,16.38
2023-04-30T00:23:03.724Z,16.88
2023-04-30T00:25:29.959Z,19.80
2023-04-30T00:27:56.274Z,19.58
2023-04-30T00:30:22.486Z,16.63
2023-04-30T00:32:48.846Z,28.38
2023-04-30T00:35:15.524Z,20.40
2023-04-30T00:37:41.853Z,17.42
2023-04-30T00:40:08.449Z,18.90
2023-04-30T00:42:34.682Z,17.02
2023-04-30T00:45:01.484Z,18.98
2023-04-30T00:47:27.700Z,16.63
2023-04-30T00:49:54.292Z,19.45
2023-04-30T00:52:20.733Z,18.10
2023-04-30T00:54:47.015Z,20.38
2023-04-30T00:57:13.879Z,22.98
2023-04-30T01:02:06.520Z,22.42
2023-04-30T01:04:33.675Z,18.60
2023-04-30T01:07:02.121Z,18.52
2023-04-30T01:09:28.907Z,20.05
2023-04-30T01:12:01.887Z,17.65
2023-04-30T01:14:33.907Z,22.52
2023-04-30T01:17:04.626Z,21.45
2023-04-30T01:19:30.879Z,17.90
2023-04-30T01:22:01.636Z,18.58
2023-04-30T01:24:27.855Z,19.77
2023-04-30T01:27:12.693Z,21.23
2023-04-30T01:29:39.449Z,19.58
2023-04-30T01:32:05.682Z,16.83
2023-04-30T01:34:32.120Z,18.92
2023-04-30T01:37:22.190Z,20.50
2023-04-30T01:39:58.225Z,18.85
2023-04-30T01:42:33.672Z,23.50
2023-04-30T01:45:21.448Z,18.45
2023-04-30T01:47:59.753Z,21.95
2023-04-30T01:50:38.172Z,18.38
2023-04-30T01:53:07.040Z,17.55
2023-04-30T01:55:36.815Z,20.45
2023-04-30T01:58:05.054Z,21.23
2023-04-30T02:00:31.290Z,23.15
2023-04-30T02:02:58.132Z,19.98
2023-04-30T02:07:51.632Z,18.70
2023-04-30T02:10:21.935Z,17.77
2023-04-30T02:12:48.206Z,20.15
2023-04-30T02:15:15.114Z,22.67
2023-04-30T02:20:08.477Z,20.10
2023-04-30T02:22:34.851Z,21.40
2023-04-30T02:25:01.382Z,19.75
2023-04-30T02:27:29.994Z,21.50
2023-04-30T02:29:56.507Z,22.70
2023-04-30T02:32:23.101Z,21.83
2023-04-30T02:34:49.572Z,21.30
2023-04-30T02:37:15.864Z,17.92
2023-04-30T02:39:42.252Z,24.35
2023-04-30T02:42:08.521Z,17.85
2023-04-30T02:44:35.020Z,17.50
2023-04-30T02:47:02.325Z,21.08
2023-04-30T02:49:28.878Z,20.15
2023-04-30T02:51:55.311Z,21.05
2023-04-30T02:54:21.650Z,19.95
2023-04-30T02:56:47.927Z,19.73
2023-04-30T02:59:14.156Z,22.45
2023-04-30T03:01:40.534Z,21.65
2023-04-30T03:04:06.780Z,20.15
2023-04-30T03:06:33.258Z,20.38
2023-04-30T03:08:59.689Z,21.25
2023-04-30T03:11:26.006Z,18.88
2023-04-30T03:13:52.326Z,21.73
2023-04-30T03:16:19.730Z,24.70
2023-04-30T03:18:46.374Z,22.88
2023-04-30T03:21:12.619Z,22.45
2023-04-30T03:23:38.888Z,22.30
2023-04-30T03:26:05.270Z,26.15
2023-04-30T03:28:31.538Z,23.95
2023-04-30T03:30:59.101Z,23.23
2023-04-30T03:33:25.391Z,19.38
2023-04-30T03:35:51.870Z,22.05
2023-04-30T03:38:18.099Z,21.55
2023-04-30T03:40:44.373Z,24.55
2023-04-30T03:43:10.720Z,21.17
2023-04-30T03:45:36.956Z,19.65
2023-04-30T03:48:03.272Z,19.40
2023-04-30T03:50:29.661Z,22.10
2023-04-30T03:52:56.096Z,27.40
2023-04-30T03:55:22.322Z,22.17
2023-04-30T03:57:48.536Z,21.15
2023-04-30T04:00:15.424Z,23.73
2023-04-30T04:02:41.776Z,23.00
2023-04-30T04:05:08.081Z,23.48
2023-04-30T04:07:34.289Z,21.70
2023-04-30T04:10:00.744Z,20.83
2023-04-30T04:12:26.969Z,22.67
2023-04-30T04:14:53.189Z,22.92
2023-04-30T04:17:19.384Z,20.55
2023-04-30T04:19:45.641Z,22.38
2023-04-30T04:22:11.860Z,19.83
2023-04-30T04:24:38.360Z,21.25
2023-04-30T04:27:05.606Z,20.40
2023-04-30T04:29:32.173Z,19.25
2023-04-30T04:32:00.437Z,20.35
2023-04-30T04:34:26.900Z,20.52
2023-04-30T04:36:53.301Z,20.73
2023-04-30T04:39:19.528Z,18.45
2023-04-30T04:41:45.804Z,23.05
2023-04-30T04:44:12.054Z,17.70
2023-04-30T04:46:38.612Z,21.60
2023-04-30T04:49:05.047Z,21.40
2023-04-30T04:51:32.948Z,18.88
2023-04-30T04:53:59.283Z,18.55
2023-04-30T04:56:25.532Z,15.95
2023-04-30T04:58:51.724Z,19.15
2023-04-30T05:01:17.976Z,18.88
2023-04-30T05:03:44.302Z,17.25
2023-04-30T05:06:10.596Z,16.23
2023-04-30T05:08:36.877Z,17.25
2023-04-30T05:11:03.193Z,15.57
2023-04-30T05:13:29.384Z,17.08
2023-04-30T05:15:55.970Z,18.15
2023-04-30T05:18:22.201Z,18.00
2023-04-30T05:20:48.717Z,17.10
2023-04-30T05:23:14.929Z,16.35
2023-04-30T05:25:41.194Z,14.65
2023-04-30T05:28:07.445Z,16.55
2023-04-30T05:30:33.643Z,14.27
2023-04-30T05:32:59.919Z,13.63
2023-04-30T05:35:26.479Z,15.35
2023-04-30T05:37:52.724Z,14.02
2023-04-30T05:40:19.068Z,12.02
2023-04-30T05:42:45.320Z,15.98
2023-04-30T05:45:14.446Z,13.65
2023-04-30T05:47:40.943Z,13.40
2023-04-30T05:50:07.573Z,12.90
2023-04-30T05:52:33.768Z,11.93
2023-04-30T05:54:59.999Z,13.75
2023-04-30T05:57:26.326Z,12.27
2023-04-30T05:59:53.647Z,12.25
2023-04-30T06:02:20.256Z,12.10
2023-04-30T06:04:47.568Z,17.02
2023-04-30T06:07:13.860Z,14.20
2023-04-30T06:09:40.091Z,11.30
2023-04-30T06:12:06.305Z,15.13
2023-04-30T06:14:32.546Z,21.13
2023-04-30T06:16:58.789Z,12.63
2023-04-30T06:19:25.422Z,13.32
2023-04-30T06:21:51.661Z,16.25
2023-04-30T06:24:17.859Z,14.65
2023-04-30T06:26:44.077Z,10.73
2023-04-30T06:29:10.325Z,12.68
2023-04-30T06:31:36.567Z,13.73
2023-04-30T06:34:02.900Z,13.98
2023-04-30T06:36:29.089Z,18.95
2023-04-30T06:38:55.417Z,12.68
2023-04-30T06:41:21.741Z,16.08
2023-04-30T06:43:47.953Z,11.25
2023-04-30T06:46:15.104Z,11.52
2023-04-30T06:48:41.822Z,18.85
2023-04-30T06:51:09.896Z,15.82
2023-04-30T06:53:36.822Z,14.88
2023-04-30T06:56:04.083Z,10.60
2023-04-30T06:58:30.291Z,11.23
2023-04-30T07:00:56.591Z,16.90
2023-04-30T07:03:22.879Z,12.05
2023-04-30T07:05:49.376Z,13.10
2023-04-30T07:08:15.588Z,11.63
2023-04-30T07:10:41.822Z,11.35
2023-04-30T07:13:08.325Z,10.10
2023-04-30T07:15:34.742Z,9.27
2023-04-30T07:18:01.124Z,11.00
2023-04-30T07:20:27.374Z,15.65
2023-04-30T07:22:54.900Z,11.77
2023-04-30T07:25:21.140Z,12.25
2023-04-30T07:27:47.386Z,10.20
2023-04-30T07:30:13.872Z,15.13
2023-04-30T07:32:41.442Z,10.20
2023-04-30T07:35:07.841Z,15.07
2023-04-30T07:37:35.765Z,8.05
2023-04-30T07:40:03.480Z,11.88
2023-04-30T07:42:29.719Z,10.50
2023-04-30T07:44:55.987Z,9.13
2023-04-30T07:47:22.269Z,11.20
2023-04-30T07:49:48.978Z,12.30
2023-04-30T07:52:15.282Z,12.90
2023-04-30T07:54:41.559Z,13.32
2023-04-30T07:57:07.898Z,9.13
2023-04-30T07:59:34.134Z,13.13
2023-04-30T08:02:01.508Z,12.07
2023-04-30T08:04:27.843Z,10.13
2023-04-30T08:06:54.109Z,9.77
2023-04-30T08:09:20.479Z,9.27
2023-04-30T08:11:46.684Z,11.27
2023-04-30T08:14:12.932Z,9.10
2023-04-30T08:16:39.225Z,8.35
2023-04-30T08:19:05.746Z,10.00
2023-04-30T08:21:32.220Z,11.07
2023-04-30T08:23:58.437Z,12.93
2023-04-30T08:26:25.260Z,13.10
2023-04-30T08:31:17.841Z,8.43
2023-04-30T08:33:44.122Z,7.28
2023-04-30T08:36:10.327Z,8.40
2023-04-30T08:38:36.828Z,12.30
2023-04-30T08:41:07.421Z,8.63
2023-04-30T08:43:35.443Z,7.65
2023-04-30T08:46:02.826Z,9.55
2023-04-30T08:48:29.680Z,8.98
2023-04-30T08:53:22.226Z,7.22
2023-04-30T08:55:48.439Z,9.50
2023-04-30T08:58:14.792Z,10.13
2023-04-30T09:00:41.611Z,5.93
2023-04-30T09:03:08.434Z,6.30
2023-04-30T09:05:34.871Z,4.47
2023-04-30T09:08:04.093Z,3.60
2023-04-30T09:10:34.861Z,6.47
2023-04-30T09:13:05.333Z,9.05
2023-04-30T09:15:32.502Z,4.95
2023-04-30T09:18:10.910Z,9.20
2023-04-30T09:20:37.974Z,8.85
2023-04-30T09:23:08.281Z,5.30
2023-04-30T09:25:41.717Z,4.00
2023-04-30T09:28:11.688Z,3.45
2023-04-30T09:30:38.479Z,5.15
2023-04-30T09:33:04.919Z,4.47
2023-04-30T09:37:59.265Z,3.40
2023-04-30T09:40:39.055Z,2.53
2023-04-30T09:43:05.405Z,2.65
2023-04-30T09:45:48.363Z,4.80
2023-04-30T09:48:18.425Z,4.07
2023-04-30T09:50:45.413Z,2.25
2023-04-30T09:53:15.139Z,3.90
2023-04-30T09:55:43.332Z,4.47
2023-04-30T09:58:10.623Z,2.35
2023-04-30T10:00:37.471Z,5.95
2023-04-30T10:03:10.470Z,4.13
2023-04-30T10:05:37.855Z,6.10
2023-04-30T10:08:05.858Z,4.65
2023-04-30T10:10:32.268Z,8.80
2023-04-30T10:13:04.513Z,3.20
2023-04-30T10:15:36.422Z,3.45
2023-04-30T10:18:04.753Z,3.17
2023-04-30T10:20:31.854Z,3.88
2023-04-30T10:22:58.488Z,2.47
2023-04-30T10:25:26.906Z,4.75
2023-04-30T10:27:53.341Z,3.70
2023-04-30T10:30:21.293Z,8.95
2023-04-30T10:33:07.909Z,4.78
2023-04-30T10:35:40.401Z,5.85
2023-04-30T10:38:12.952Z,4.47
2023-04-30T10:40:39.240Z,6.35
2023-04-30T10:43:05.609Z,3.17
2023-04-30T10:45:36.637Z,3.90
2023-04-30T10:48:03.398Z,3.35
2023-04-30T10:53:03.579Z,3.05
2023-04-30T10:55:30.610Z,5.63
2023-04-30T10:57:58.131Z,2.35
2023-04-30T11:00:25.625Z,5.53
2023-04-30T11:02:55.543Z,3.08
2023-04-30T11:05:22.229Z,3.35
2023-04-30T11:07:51.577Z,4.57
2023-04-30T11:10:21.716Z,5.13
2023-04-30T11:12:48.321Z,5.00
2023-04-30T11:15:17.903Z,8.88
2023-04-30T11:17:45.805Z,6.15
2023-04-30T11:20:12.873Z,5.97
2023-04-30T11:22:39.185Z,5.65
2023-04-30T11:25:06.309Z,4.32
2023-04-30T11:27:34.051Z,6.80
2023-04-30T11:30:00.982Z,4.40
2023-04-30T11:32:32.682Z,4.13
2023-04-30T11:34:59.566Z,4.95
2023-04-30T11:39:52.171Z,7.35
2023-04-30T11:42:19.086Z,3.58
2023-04-30T11:47:15.455Z,5.82
2023-04-30T11:49:42.741Z,8.88
2023-04-30T11:52:09.547Z,9.48
2023-04-30T11:57:04.235Z,4.90
2023-04-30T11:59:31.660Z,5.57
2023-04-30T12:01:58.545Z,5.57
2023-04-30T12:04:24.816Z,6.95
2023-04-30T12:06:51.467Z,5.93
2023-04-30T12:09:17.712Z,4.22
2023-04-30T12:11:43.989Z,5.70
2023-04-30T12:14:10.966Z,4.03
2023-04-30T12:16:41.483Z,3.78
2023-04-30T12:19:07.781Z,3.42
2023-04-30T12:21:34.466Z,3.47
2023-04-30T12:26:37.114Z,4.63
2023-04-30T12:29:08.359Z,6.25
2023-04-30T12:31:34.828Z,8.02
2023-04-30T12:34:05.349Z,4.72
2023-04-30T12:36:32.426Z,4.78
2023-04-30T12:39:03.078Z,5.90
2023-04-30T12:41:29.704Z,3.20
2023-04-30T12:44:14.712Z,2.60
2023-04-30T12:46:41.136Z,3.92
2023-04-30T12:49:07.556Z,3.55
2023-04-30T12:51:36.660Z,3.05
2023-04-30T12:54:03.285Z,6.32
2023-04-30T12:56:29.495Z,6.53
2023-04-30T12:58:55.746Z,3.05
2023-04-30T13:01:24.137Z,5.35
2023-04-30T13:03:51.136Z,3.88
2023-04-30T13:06:18.151Z,3.30
2023-04-30T13:08:57.124Z,3.05
2023-04-30T13:11:26.132Z,3.85
2023-04-30T13:13:55.074Z,2.78
2023-04-30T13:16:21.398Z,4.20
2023-04-30T13:18:47.641Z,4.03
2023-04-30T13:21:13.838Z,4.05
2023-04-30T13:23:51.225Z,8.88
2023-04-30T13:26:19.548Z,4.18
2023-04-30T13:28:45.799Z,3.30
2023-04-30T13:31:12.214Z,4.28
2023-04-30T13:33:38.687Z,3.80
2023-04-30T13:36:04.976Z,4.35
2023-04-30T13:38:31.264Z,4.15
2023-04-30T13:40:57.488Z,3.60
2023-04-30T13:43:23.707Z,2.30
2023-04-30T13:45:50.437Z,5.70
2023-04-30T13:50:42.954Z,6.93
2023-04-30T13:53:09.172Z,3.90
2023-04-30T13:55:35.542Z,2.25
2023-04-30T13:58:01.970Z,6.50
2023-04-30T14:00:28.310Z,3.70
2023-04-30T14:02:55.681Z,2.47
2023-04-30T14:05:22.312Z,3.45
2023-04-30T14:07:48.532Z,4.50
2023-04-30T14:10:14.793Z,2.15
2023-04-30T14:12:41.022Z,2.97
2023-04-30T14:15:08.180Z,3.90
2023-04-30T14:17:34.432Z,2.28
2023-04-30T14:20:00.650Z,5.50
2023-04-30T14:22:26.994Z,3.40
2023-04-30T14:24:53.599Z,3.55
2023-04-30T14:29:46.024Z,3.47
2023-04-30T14:32:13.990Z,3.67
2023-04-30T14:34:40.267Z,3.42
2023-04-30T14:37:06.684Z,3.38
2023-04-30T14:41:59.133Z,5.90
2023-04-30T14:44:26.384Z,3.70
2023-04-30T14:46:52.837Z,4.07
2023-04-30T14:51:45.209Z,2.00
2023-04-30T14:54:11.427Z,2.08
2023-04-30T14:56:37.681Z,2.55
2023-04-30T14:59:03.916Z,4.47
2023-04-30T15:01:30.577Z,6.10
2023-04-30T15:03:57.002Z,6.25
2023-04-30T15:06:23.310Z,2.38
2023-04-30T15:08:49.941Z,3.35
2023-04-30T15:11:16.575Z,2.78
2023-04-30T15:13:42.863Z,2.53
2023-04-30T15:16:09.222Z,2.45
2023-04-30T15:18:35.699Z,3.88
2023-04-30T15:23:28.244Z,3.40
2023-04-30T15:25:55.195Z,5.22
2023-04-30T15:28:23.399Z,3.13
2023-04-30T15:30:49.836Z,2.10
2023-04-30T15:35:42.262Z,4.95
2023-04-30T15:38:08.497Z,2.13
2023-04-30T15:40:36.029Z,2.67
2023-04-30T15:43:02.402Z,3.00
2023-04-30T15:45:29.393Z,2.45
2023-04-30T15:47:55.659Z,1.88
2023-04-30T15:50:21.949Z,6.07
2023-04-30T15:52:48.168Z,2.70
2023-04-30T15:55:14.423Z,2.88
2023-04-30T15:57:40.655Z,4.03
2023-04-30T16:00:07.139Z,2.58
2023-04-30T16:02:33.400Z,4.22
2023-04-30T16:04:59.612Z,3.92
2023-04-30T16:07:25.849Z,3.97
2023-04-30T16:09:52.929Z,3.67
2023-04-30T16:12:19.481Z,3.92
2023-04-30T16:14:45.769Z,3.13
2023-04-30T16:17:12.000Z,2.97
2023-04-30T16:19:38.290Z,3.65
2023-04-30T16:22:04.496Z,3.65
2023-04-30T16:24:31.175Z,3.92
2023-04-30T16:29:23.622Z,3.65
2023-04-30T16:31:50.017Z,6.68
2023-04-30T16:34:16.302Z,5.07
2023-04-30T16:36:42.500Z,4.43
2023-04-30T16:39:08.763Z,3.28
2023-04-30T16:41:35.570Z,2.33
2023-04-30T16:46:29.715Z,5.63
2023-04-30T16:48:56.032Z,2.45
2023-04-30T16:51:22.311Z,2.03
2023-04-30T16:53:48.522Z,4.10
2023-04-30T16:56:15.047Z,5.18
2023-04-30T16:58:41.365Z,3.00
2023-04-30T17:01:07.632Z,6.05
2023-04-30T17:03:37.033Z,4.63
2023-04-30T17:06:06.547Z,4.28
2023-04-30T17:08:32.833Z,7.20
2023-04-30T17:10:59.046Z,3.90
2023-04-30T17:13:25.887Z,2.28
2023-04-30T17:18:21.006Z,3.00
2023-04-30T17:20:49.495Z,2.72
2023-04-30T17:23:16.564Z,4.72
2023-04-30T17:25:43.102Z,2.60
2023-04-30T17:28:09.336Z,2.53
2023-04-30T17:30:36.054Z,2.08
2023-04-30T17:33:04.355Z,3.05
2023-04-30T17:35:30.610Z,1.88
2023-04-30T17:37:56.820Z,8.40
2023-04-30T17:40:23.079Z,2.00
2023-04-30T17:42:51.849Z,3.08
2023-04-30T17:45:18.896Z,3.30
2023-04-30T17:47:45.524Z,8.57
2023-04-30T17:50:11.818Z,4.05
2023-04-30T17:52:40.770Z,2.25
2023-04-30T17:55:07.654Z,5.47
2023-04-30T18:00:00.179Z,4.55
2023-04-30T18:02:26.428Z,4.50
2023-04-30T18:04:52.962Z,4.25
2023-04-30T18:07:19.565Z,2.65
2023-04-30T18:09:47.247Z,5.68
2023-04-30T18:12:13.864Z,5.00
2023-04-30T18:14:40.381Z,6.57
2023-04-30T18:17:07.165Z,3.45
2023-04-30T18:19:33.537Z,10.82
2023-04-30T18:21:59.782Z,9.20
2023-04-30T18:24:27.764Z,4.07
2023-04-30T18:26:54.876Z,8.85
2023-04-30T18:29:21.105Z,9.02
2023-04-30T18:31:48.398Z,7.60
2023-04-30T18:34:14.915Z,22.95
2023-04-30T18:36:44.024Z,9.57
2023-04-30T18:39:12.331Z,7.40
2023-04-30T18:41:38.557Z,11.35
2023-04-30T18:44:04.793Z,10.57
2023-04-30T18:46:31.216Z,14.65
2023-04-30T18:48:58.130Z,9.35
2023-04-30T18:53:50.659Z,10.02
2023-04-30T18:56:16.967Z,7.15
2023-04-30T18:58:44.278Z,5.47
2023-04-30T19:01:10.814Z,6.85
2023-04-30T19:03:37.368Z,4.35
2023-04-30T19:06:03.870Z,6.45
2023-04-30T19:08:30.087Z,5.95
2023-04-30T19:10:56.825Z,9.07
2023-04-30T19:13:23.141Z,4.68
2023-04-30T19:15:49.366Z,6.25
2023-04-30T19:18:16.424Z,7.10
2023-04-30T19:20:45.707Z,6.15
2023-04-30T19:23:11.937Z,5.53
2023-04-30T19:25:39.840Z,32.70
2023-04-30T19:28:06.112Z,26.52
2023-04-30T19:30:32.408Z,17.60
2023-04-30T19:32:58.693Z,14.07
2023-04-30T19:35:24.955Z,13.35
2023-04-30T19:37:51.238Z,9.95
2023-04-30T19:40:18.356Z,7.55
2023-04-30T19:42:44.638Z,7.30
2023-04-30T19:45:11.111Z,6.45
2023-04-30T19:47:37.993Z,4.57
2023-04-30T19:52:30.465Z,8.02
2023-04-30T19:54:56.699Z,3.92
2023-04-30T19:57:22.970Z,6.00
2023-04-30T19:59:49.187Z,10.25
2023-04-30T20:02:15.742Z,12.32
2023-04-30T20:04:42.047Z,8.65
2023-04-30T20:07:08.471Z,11.23
2023-04-30T20:09:34.684Z,7.10
2023-04-30T20:12:02.597Z,5.57
2023-04-30T20:14:29.037Z,10.82
2023-04-30T20:16:56.405Z,7.35
2023-04-30T20:19:22.719Z,10.25
2023-04-30T20:21:49.385Z,6.45
2023-04-30T20:24:15.875Z,7.95
2023-04-30T20:26:42.497Z,5.88
2023-04-30T20:29:09.191Z,5.70
2023-04-30T20:31:36.857Z,13.20
2023-04-30T20:34:03.755Z,5.97
2023-04-30T20:36:33.736Z,5.78
2023-04-30T20:38:59.975Z,4.93
2023-04-30T20:41:26.495Z,4.65
2023-04-30T20:43:53.885Z,6.93
2023-04-30T20:46:21.063Z,8.35
2023-04-30T20:48:47.381Z,4.78
2023-04-30T20:51:15.872Z,5.90
2023-04-30T20:53:42.088Z,12.15
2023-04-30T20:56:08.758Z,9.57
2023-04-30T20:58:35.272Z,9.85
2023-04-30T21:01:01.587Z,17.27
2023-04-30T21:03:27.973Z,17.85
2023-04-30T21:05:54.263Z,10.13
2023-04-30T21:08:20.537Z,6.00
2023-04-30T21:10:46.794Z,8.52
2023-04-30T21:13:14.828Z,14.30
2023-04-30T21:15:42.689Z,14.85
2023-04-30T21:18:09.269Z,11.75
2023-04-30T21:20:35.855Z,14.68
2023-04-30T21:23:02.087Z,7.90
2023-04-30T21:25:28.428Z,4.63
2023-04-30T21:27:54.995Z,7.53
2023-04-30T21:30:24.271Z,9.95
2023-04-30T21:32:57.692Z,6.63
2023-04-30T21:35:24.620Z,11.63
2023-04-30T21:37:50.872Z,8.18
2023-04-30T21:40:17.109Z,11.95
2023-04-30T21:42:43.331Z,7.88
2023-04-30T21:45:09.816Z,13.07
2023-04-30T21:47:36.061Z,14.82
2023-04-30T21:50:02.426Z,9.68
2023-04-30T21:52:28.678Z,8.30
2023-04-30T21:54:54.894Z,8.45
2023-04-30T21:57:21.458Z,7.75
2023-04-30T21:59:47.679Z,7.03
2023-04-30T22:02:23.736Z,8.18
2023-04-30T22:04:50.796Z,6.65
2023-04-30T22:07:17.338Z,12.77
2023-04-30T22:09:44.642Z,8.35
2023-04-30T22:12:10.948Z,10.05
2023-04-30T22:14:37.150Z,6.55
2023-04-30T22:17:03.606Z,8.38
2023-04-30T22:19:29.825Z,8.32
2023-04-30T22:21:56.132Z,7.72
2023-04-30T22:24:22.354Z,9.00
2023-04-30T22:26:48.572Z,9.70
2023-04-30T22:29:14.778Z,13.73
2023-04-30T22:31:41.053Z,9.23
2023-04-30T22:34:07.822Z,14.93
2023-04-30T22:36:34.065Z,19.08
2023-04-30T22:39:00.314Z,9.00
2023-04-30T22:41:27.207Z,14.52
2023-04-30T22:46:19.943Z,12.00
2023-04-30T22:48:46.303Z,9.88
2023-04-30T22:51:12.708Z,11.27
2023-04-30T22:53:38.924Z,27.10
2023-04-30T22:56:05.318Z,32.55
2023-04-30T22:58:31.589Z,50.67
2023-04-30T23:00:57.862Z,30.02
2023-04-30T23:03:26.556Z,28.15
2023-04-30T23:05:52.790Z,25.23
2023-04-30T23:08:19.108Z,28.10
2023-04-30T23:10:45.443Z,25.80
2023-04-30T23:13:11.795Z,23.42
2023-04-30T23:15:38.036Z,21.92
2023-04-30T23:18:06.349Z,20.95
2023-04-30T23:20:32.691Z,21.00
2023-04-30T23:22:58.903Z,17.83
2023-04-30T23:25:25.153Z,16.60
2023-04-30T23:27:51.605Z,19.55
2023-04-30T23:30:17.889Z,18.50
2023-04-30T23:32:44.130Z,13.48
2023-04-30T23:35:10.379Z,12.60
2023-04-30T23:37:36.659Z,17.17
2023-04-30T23:40:07.094Z,15.45
2023-04-30T23:42:33.322Z,15.02
2023-04-30T23:44:59.530Z,17.85
2023-04-30T23:47:27.209Z,17.10
2023-04-30T23:49:53.830Z,12.35
2023-04-30T23:52:20.418Z,15.38
2023-04-30T23:54:46.728Z,11.57
2023-04-30T23:57:12.993Z,11.82
2023-04-30T23:59:39.597Z,17.42
